Time,TemperatureF,DewpointF,PressureIn,WindDirection,WindDirectionDegrees,WindSpeedMPH,WindSpeedGustMPH,Humidity,HourlyPrecipIn,Conditions,Clouds,dailyrainin,SolarRadiationWatts/m^2,SoftwareType,DateUTC
2013-02-06 00:00:00,29.9,28.1,29.66,ENE,61,0.0,0.0,93,0.00,,,0.00,0,WeatherCatV1.13B119,2013-02-06 05:00:00,
2013-02-06 00:05:00,29.9,28.1,29.67,ENE,61,0.0,0.0,93,0.00,,,0.00,0,WeatherCatV1.13B119,2013-02-06 05:05:00,
2013-02-06 00:10:00,29.9,28.1,29.67,ENE,61,0.0,0.0,93,0.00,,,0.00,0,WeatherCatV1.13B119,2013-02-06 05:10:00,
2013-02-06 00:15:00,29.9,28.1,29.67,ENE,61,0.0,0.0,93,0.00,,,0.00,0,WeatherCatV1.13B119,2013-02-06 05:15:00,
2013-02-06 00:19:00,29.9,28.1,29.67,ENE,61,0.0,0.0,93,0.00,,,0.00,0,WeatherCatV1.13B119,2013-02-06 05:19:00,
2013-02-06 00:24:00,29.9,28.4,29.67,ENE,61,0.0,0.0,94,0.00,,,0.00,0,WeatherCatV1.13B119,2013-02-06 05:24:00,
2013-02-06 00:29:00,29.8,28.3,29.67,ENE,61,0.0,0.0,94,0.00,,,0.00,0,WeatherCatV1.13B119,2013-02-06 05:29:00,
2013-02-06 00:34:00,29.8,28.3,29.67,ENE,61,0.0,0.0,94,0.00,,,0.00,0,WeatherCatV1.13B119,2013-02-06 05:34:00,
2013-02-06 00:39:00,29.9,28.4,29.67,ENE,61,0.0,0.0,94,0.00,,,0.00,0,WeatherCatV1.13B119,2013-02-06 05:39:00,
2013-02-06 00:44:00,29.9,28.4,29.67,ENE,61,0.0,0.0,94,0.00,,,0.00,0,WeatherCatV1.13B119,2013-02-06 05:44:00,
2013-02-06 00:49:00,29.9,28.4,29.67,ENE,61,0.0,0.0,94,0.00,,,0.00,0,WeatherCatV1.13B119,2013-02-06 05:49:00,
2013-02-06 00:54:00,29.9,28.4,29.67,ENE,61,0.0,0.0,94,0.00,,,0.00,0,WeatherCatV1.13B119,2013-02-06 05:54:00,
2013-02-06 00:59:00,29.9,28.4,29.67,ENE,61,0.0,0.0,94,0.00,,,0.00,0,WeatherCatV1.13B119,2013-02-06 05:59:00,
2013-02-06 01:04:00,29.9,28.4,29.67,ENE,61,0.0,0.0,94,0.00,,,0.00,0,WeatherCatV1.13B119,2013-02-06 06:04:00,
2013-02-06 01:09:00,29.9,28.4,29.67,ENE,61,0.0,0.0,94,0.00,,,0.00,0,WeatherCatV1.13B119,2013-02-06 06:09:00,
2013-02-06 01:14:00,29.9,28.4,29.67,ENE,61,0.0,0.0,94,0.00,,,0.00,0,WeatherCatV1.13B119,2013-02-06 06:14:00,
2013-02-06 01:19:00,29.9,28.4,29.67,ENE,61,0.0,0.0,94,0.00,,,0.00,0,WeatherCatV1.13B119,2013-02-06 06:19:00,
2013-02-06 01:24:00,29.9,28.4,29.67,ENE,61,0.0,0.0,94,0.00,,,0.00,0,WeatherCatV1.13B119,2013-02-06 06:24:00,
2013-02-06 01:29:00,29.9,28.4,29.67,ENE,61,0.0,0.0,94,0.00,,,0.00,0,WeatherCatV1.13B119,2013-02-06 06:29:00,
2013-02-06 01:34:00,29.9,28.4,29.67,ENE,61,0.0,0.0,94,0.00,,,0.00,0,WeatherCatV1.13B119,2013-02-06 06:34:00,
2013-02-06 01:39:00,29.9,28.4,29.67,ENE,61,0.0,0.0,94,0.00,,,0.00,0,WeatherCatV1.13B119,2013-02-06 06:39:00,
2013-02-06 01:44:00,30.0,28.5,29.67,ENE,61,0.0,0.0,94,0.00,,,0.00,0,WeatherCatV1.13B119,2013-02-06 06:44:00,
2013-02-06 01:49:00,30.0,28.5,29.67,ENE,61,0.0,0.0,94,0.00,,,0.00,0,WeatherCatV1.13B119,2013-02-06 06:49:00,
2013-02-06 01:54:00,30.0,28.7,29.67,ENE,61,0.0,0.0,95,0.00,,,0.00,0,WeatherCatV1.13B119,2013-02-06 06:54:00,
2013-02-06 01:59:00,30.0,28.7,29.67,ENE,61,0.0,0.0,95,0.00,,,0.00,0,WeatherCatV1.13B119,2013-02-06 06:59:00,
2013-02-06 02:04:00,30.0,28.7,29.67,ENE,61,0.0,0.0,95,0.00,,,0.00,0,WeatherCatV1.13B119,2013-02-06 07:04:00,
2013-02-06 02:09:00,30.1,28.8,29.67,ENE,61,0.0,0.0,95,0.00,,,0.00,0,WeatherCatV1.13B119,2013-02-06 07:09:00,
2013-02-06 02:14:00,30.0,28.7,29.67,ENE,61,0.0,0.0,95,0.00,,,0.00,0,WeatherCatV1.13B119,2013-02-06 07:14:00,
2013-02-06 02:19:00,30.1,28.8,29.67,ENE,61,0.0,0.0,95,0.00,,,0.00,0,WeatherCatV1.13B119,2013-02-06 07:19:00,
2013-02-06 02:24:00,30.0,28.7,29.67,ENE,61,0.0,0.0,95,0.00,,,0.00,0,WeatherCatV1.13B119,2013-02-06 07:24:00,
2013-02-06 02:29:00,30.1,28.8,29.67,ENE,61,0.0,0.0,95,0.00,,,0.00,0,WeatherCatV1.13B119,2013-02-06 07:29:00,
2013-02-06 02:34:00,30.1,28.8,29.66,ENE,61,0.0,0.0,95,0.00,,,0.00,0,WeatherCatV1.13B119,2013-02-06 07:34:00,
2013-02-06 02:39:00,30.0,28.7,29.67,ENE,61,0.0,0.0,95,0.00,,,0.00,0,WeatherCatV1.13B119,2013-02-06 07:39:00,
2013-02-06 02:44:00,30.0,28.7,29.67,ENE,61,0.0,0.0,95,0.00,,,0.00,0,WeatherCatV1.13B119,2013-02-06 07:44:00,
2013-02-06 02:49:00,29.9,28.6,29.67,ENE,61,0.0,0.0,95,0.00,,,0.00,0,WeatherCatV1.13B119,2013-02-06 07:49:00,
2013-02-06 02:54:00,29.8,28.5,29.67,ENE,61,0.0,0.0,95,0.00,,,0.00,0,WeatherCatV1.13B119,2013-02-06 07:54:00,
2013-02-06 02:59:00,29.8,28.5,29.67,ENE,61,0.0,0.0,95,0.00,,,0.00,0,WeatherCatV1.13B119,2013-02-06 07:59:00,
2013-02-06 03:04:00,29.7,28.4,29.67,ENE,61,0.0,0.0,95,0.00,,,0.00,0,WeatherCatV1.13B119,2013-02-06 08:04:00,
2013-02-06 03:09:00,29.6,28.3,29.67,ENE,61,0.0,0.0,95,0.00,,,0.00,0,WeatherCatV1.13B119,2013-02-06 08:09:00,
2013-02-06 03:14:00,29.4,27.9,29.67,ENE,61,0.0,0.0,94,0.00,,,0.00,0,WeatherCatV1.13B119,2013-02-06 08:14:00,
2013-02-06 03:19:00,29.2,27.7,29.68,ENE,61,0.0,0.0,94,0.00,,,0.00,0,WeatherCatV1.13B119,2013-02-06 08:19:00,
2013-02-06 03:24:00,29.1,27.6,29.68,ENE,61,0.0,0.0,94,0.00,,,0.00,0,WeatherCatV1.13B119,2013-02-06 08:24:00,
2013-02-06 03:29:00,29.0,27.5,29.68,ENE,61,0.0,0.0,94,0.00,,,0.00,0,WeatherCatV1.13B119,2013-02-06 08:29:00,
2013-02-06 03:34:00,28.9,27.4,29.68,ENE,61,0.0,0.0,94,0.00,,,0.00,0,WeatherCatV1.13B119,2013-02-06 08:34:00,
2013-02-06 03:39:00,28.8,27.3,29.68,ENE,61,0.0,0.0,94,0.00,,,0.00,0,WeatherCatV1.13B119,2013-02-06 08:39:00,
2013-02-06 03:44:00,28.7,27.2,29.68,ENE,61,0.0,0.0,94,0.00,,,0.00,0,WeatherCatV1.13B119,2013-02-06 08:44:00,
2013-02-06 03:49:00,28.6,27.1,29.68,ENE,61,0.0,0.0,94,0.00,,,0.00,0,WeatherCatV1.13B119,2013-02-06 08:49:00,
2013-02-06 03:54:00,28.5,27.0,29.69,ENE,61,0.0,0.0,94,0.00,,,0.00,0,WeatherCatV1.13B119,2013-02-06 08:54:00,
2013-02-06 03:59:00,28.5,27.0,29.69,ENE,61,0.0,0.0,94,0.00,,,0.00,0,WeatherCatV1.13B119,2013-02-06 08:59:00,
2013-02-06 04:04:00,28.3,26.8,29.69,ENE,61,0.0,0.0,94,0.00,,,0.00,0,WeatherCatV1.13B119,2013-02-06 09:04:00,
2013-02-06 04:09:00,28.3,26.8,29.69,ENE,61,0.0,0.0,94,0.00,,,0.00,0,WeatherCatV1.13B119,2013-02-06 09:09:00,
2013-02-06 04:14:00,28.1,26.6,29.69,ENE,61,0.0,0.0,94,0.00,,,0.00,0,WeatherCatV1.13B119,2013-02-06 09:14:00,
2013-02-06 04:19:00,28.1,26.6,29.69,ENE,61,0.0,0.0,94,0.00,,,0.00,0,WeatherCatV1.13B119,2013-02-06 09:19:00,
2013-02-06 04:24:00,28.0,26.5,29.69,ENE,61,0.0,0.0,94,0.00,,,0.00,0,WeatherCatV1.13B119,2013-02-06 09:24:00,
2013-02-06 04:29:00,27.9,26.4,29.69,ENE,61,0.0,0.0,94,0.00,,,0.00,0,WeatherCatV1.13B119,2013-02-06 09:29:00,
2013-02-06 04:34:00,27.8,26.6,29.70,ENE,61,0.0,0.0,95,0.00,,,0.00,0,WeatherCatV1.13B119,2013-02-06 09:34:00,
2013-02-06 04:39:00,27.8,26.6,29.70,ENE,61,0.0,0.0,95,0.00,,,0.00,0,WeatherCatV1.13B119,2013-02-06 09:39:00,
2013-02-06 04:44:00,27.7,26.2,29.70,ENE,61,0.0,0.0,94,0.00,,,0.00,0,WeatherCatV1.13B119,2013-02-06 09:44:00,
2013-02-06 04:49:00,27.6,26.1,29.70,ENE,61,0.0,0.0,94,0.00,,,0.00,0,WeatherCatV1.13B119,2013-02-06 09:49:00,
2013-02-06 04:54:00,27.4,25.9,29.71,ENE,61,0.0,0.0,94,0.00,,,0.00,0,WeatherCatV1.13B119,2013-02-06 09:54:00,
2013-02-06 04:59:00,27.3,25.8,29.71,ENE,61,0.0,0.0,94,0.00,,,0.00,0,WeatherCatV1.13B119,2013-02-06 09:59:00,
2013-02-06 05:04:00,27.2,25.7,29.71,ENE,61,0.0,0.0,94,0.00,,,0.00,0,WeatherCatV1.13B119,2013-02-06 10:04:00,
2013-02-06 05:09:00,27.0,25.5,29.71,ENE,61,0.0,0.0,94,0.00,,,0.00,0,WeatherCatV1.13B119,2013-02-06 10:09:00,
2013-02-06 05:14:00,27.0,25.5,29.71,ENE,61,0.0,0.0,94,0.00,,,0.00,0,WeatherCatV1.13B119,2013-02-06 10:14:00,
2013-02-06 05:19:00,26.9,25.4,29.72,ENE,61,0.0,0.0,94,0.00,,,0.00,0,WeatherCatV1.13B119,2013-02-06 10:19:00,
2013-02-06 05:24:00,26.7,25.2,29.72,ENE,61,0.0,0.0,94,0.00,,,0.00,0,WeatherCatV1.13B119,2013-02-06 10:24:00,
2013-02-06 05:29:00,26.6,25.1,29.72,ENE,61,0.0,0.0,94,0.00,,,0.00,0,WeatherCatV1.13B119,2013-02-06 10:29:00,
2013-02-06 05:34:00,26.3,24.8,29.72,ENE,61,0.0,0.0,94,0.00,,,0.00,0,WeatherCatV1.13B119,2013-02-06 10:34:00,
2013-02-06 05:39:00,26.2,24.7,29.72,ENE,61,0.0,0.0,94,0.00,,,0.00,0,WeatherCatV1.13B119,2013-02-06 10:39:00,
2013-02-06 05:44:00,26.0,24.5,29.72,ENE,61,0.0,0.0,94,0.00,,,0.00,0,WeatherCatV1.13B119,2013-02-06 10:44:00,
2013-02-06 05:49:00,25.8,24.3,29.73,ENE,61,0.0,0.0,94,0.00,,,0.00,0,WeatherCatV1.13B119,2013-02-06 10:49:00,
2013-02-06 05:54:00,25.7,24.2,29.73,ENE,61,0.0,0.0,94,0.00,,,0.00,0,WeatherCatV1.13B119,2013-02-06 10:54:00,
2013-02-06 05:59:00,25.6,24.1,29.73,ENE,61,0.0,0.0,94,0.00,,,0.00,0,WeatherCatV1.13B119,2013-02-06 10:59:00,
2013-02-06 06:04:00,25.6,24.1,29.73,ENE,61,0.0,0.0,94,0.00,,,0.00,0,WeatherCatV1.13B119,2013-02-06 11:04:00,
2013-02-06 06:09:00,25.6,24.1,29.73,ENE,61,0.0,0.0,94,0.00,,,0.00,0,WeatherCatV1.13B119,2013-02-06 11:09:00,
2013-02-06 06:14:00,25.6,24.1,29.74,ENE,61,0.0,0.0,94,0.00,,,0.00,0,WeatherCatV1.13B119,2013-02-06 11:14:00,
2013-02-06 06:19:00,25.8,24.6,29.74,ENE,61,0.0,0.0,95,0.00,,,0.00,0,WeatherCatV1.13B119,2013-02-06 11:19:00,
2013-02-06 06:24:00,25.9,24.7,29.75,ENE,61,0.0,0.0,95,0.00,,,0.00,0,WeatherCatV1.13B119,2013-02-06 11:24:00,
2013-02-06 06:29:00,26.0,24.8,29.75,ENE,61,0.0,0.0,95,0.00,,,0.00,0,WeatherCatV1.13B119,2013-02-06 11:29:00,
2013-02-06 06:34:00,26.0,24.8,29.75,ENE,61,0.0,0.0,95,0.00,,,0.00,0,WeatherCatV1.13B119,2013-02-06 11:34:00,
2013-02-06 06:39:00,26.1,24.9,29.75,ENE,61,0.0,0.0,95,0.00,,,0.00,0,WeatherCatV1.13B119,2013-02-06 11:39:00,
2013-02-06 06:44:00,26.3,25.1,29.75,ENE,61,0.0,0.0,95,0.00,,,0.00,0,WeatherCatV1.13B119,2013-02-06 11:44:00,
2013-02-06 06:49:00,26.4,25.4,29.76,ENE,61,0.0,0.0,96,0.00,,,0.00,0,WeatherCatV1.13B119,2013-02-06 11:49:00,
2013-02-06 06:54:00,26.5,25.5,29.76,ENE,61,0.0,0.0,96,0.00,,,0.00,0,WeatherCatV1.13B119,2013-02-06 11:54:00,
2013-02-06 06:59:00,26.5,25.3,29.76,ENE,61,0.0,0.0,95,0.00,,,0.00,0,WeatherCatV1.13B119,2013-02-06 11:59:00,
2013-02-06 07:04:00,26.5,25.3,29.76,ENE,61,0.0,0.0,95,0.00,,,0.00,0,WeatherCatV1.13B119,2013-02-06 12:04:00,
2013-02-06 07:09:00,26.5,25.3,29.76,ENE,61,0.0,0.0,95,0.00,,,0.00,0,WeatherCatV1.13B119,2013-02-06 12:09:00,
2013-02-06 07:14:00,26.5,25.3,29.76,ENE,61,0.0,0.0,95,0.00,,,0.00,5,WeatherCatV1.13B119,2013-02-06 12:14:00,
2013-02-06 07:19:00,26.4,25.2,29.77,ENE,61,0.0,0.0,95,0.00,,,0.00,5,WeatherCatV1.13B119,2013-02-06 12:19:00,
2013-02-06 07:24:00,26.3,25.1,29.77,ENE,61,0.0,0.0,95,0.00,,,0.00,9,WeatherCatV1.13B119,2013-02-06 12:24:00,
2013-02-06 07:29:00,26.1,24.9,29.78,ENE,61,0.0,0.0,95,0.00,,,0.00,12,WeatherCatV1.13B119,2013-02-06 12:29:00,
2013-02-06 07:34:00,25.9,24.7,29.79,ENE,61,0.0,0.0,95,0.00,,,0.00,14,WeatherCatV1.13B119,2013-02-06 12:34:00,
2013-02-06 07:39:00,25.8,24.6,29.79,ENE,61,0.0,0.0,95,0.00,,,0.00,16,WeatherCatV1.13B119,2013-02-06 12:39:00,
2013-02-06 07:44:00,25.7,24.5,29.80,ENE,61,0.0,0.0,95,0.00,,,0.00,21,WeatherCatV1.13B119,2013-02-06 12:44:00,
2013-02-06 07:49:00,25.6,24.4,29.80,ENE,61,0.0,0.0,95,0.00,,,0.00,21,WeatherCatV1.13B119,2013-02-06 12:49:00,
2013-02-06 07:54:00,25.6,24.4,29.81,ENE,61,0.0,0.0,95,0.00,,,0.00,25,WeatherCatV1.13B119,2013-02-06 12:54:00,
2013-02-06 07:59:00,25.6,24.4,29.80,ENE,61,0.0,0.0,95,0.00,,,0.00,28,WeatherCatV1.13B119,2013-02-06 12:59:00,
2013-02-06 08:04:00,25.8,24.6,29.81,West,272,0.0,0.0,95,0.00,,,0.00,23,WeatherCatV1.13B119,2013-02-06 13:04:00,
2013-02-06 08:09:00,26.1,24.9,29.81,WNW,286,0.0,1.0,95,0.00,,,0.00,28,WeatherCatV1.13B119,2013-02-06 13:09:00,
2013-02-06 08:14:00,26.7,25.7,29.82,West,276,0.0,1.0,96,0.00,,,0.00,35,WeatherCatV1.13B119,2013-02-06 13:14:00,
2013-02-06 08:19:00,27.1,26.1,29.82,West,276,0.0,0.0,96,0.00,,,0.00,28,WeatherCatV1.13B119,2013-02-06 13:19:00,
2013-02-06 08:24:00,27.5,26.5,29.82,West,276,0.0,0.0,96,0.00,,,0.00,30,WeatherCatV1.13B119,2013-02-06 13:24:00,
2013-02-06 08:29:00,27.9,26.9,29.82,West,260,1.0,4.0,96,0.00,,,0.00,56,WeatherCatV1.13B119,2013-02-06 13:29:00,
2013-02-06 08:34:00,28.4,27.4,29.82,NW,315,1.0,2.0,96,0.00,,,0.00,51,WeatherCatV1.13B119,2013-02-06 13:34:00,
2013-02-06 08:39:00,28.9,28.2,29.82,WSW,237,4.0,5.0,97,0.00,,,0.00,46,WeatherCatV1.13B119,2013-02-06 13:39:00,
2013-02-06 08:44:00,29.4,28.4,29.82,WSW,246,1.0,3.0,96,0.00,,,0.00,51,WeatherCatV1.13B119,2013-02-06 13:44:00,
2013-02-06 08:49:00,30.0,29.0,29.82,WSW,248,1.0,2.0,96,0.00,,,0.00,127,WeatherCatV1.13B119,2013-02-06 13:49:00,
2013-02-06 08:54:00,30.3,29.0,29.82,WNW,292,2.0,5.0,95,0.00,,,0.00,118,WeatherCatV1.13B119,2013-02-06 13:54:00,
2013-02-06 08:59:00,30.6,29.1,29.82,WNW,296,0.0,3.0,94,0.00,,,0.00,44,WeatherCatV1.13B119,2013-02-06 13:59:00,
2013-02-06 09:04:00,30.9,29.1,29.82,West,263,0.0,4.0,93,0.00,,,0.00,74,WeatherCatV1.13B119,2013-02-06 14:04:00,
2013-02-06 09:09:00,31.2,28.9,29.83,West,264,4.0,4.0,91,0.00,,,0.00,109,WeatherCatV1.13B119,2013-02-06 14:09:00,
2013-02-06 09:14:00,31.5,28.4,29.83,SSW,202,3.0,4.0,88,0.00,,,0.00,42,WeatherCatV1.13B119,2013-02-06 14:14:00,
2013-02-06 09:19:00,31.9,28.5,29.83,WNW,288,4.0,5.0,87,0.00,,,0.00,95,WeatherCatV1.13B119,2013-02-06 14:19:00,
2013-02-06 09:24:00,32.3,28.3,29.83,NW,325,2.0,4.0,85,0.00,,,0.00,105,WeatherCatV1.13B119,2013-02-06 14:24:00,
2013-02-06 09:29:00,32.9,28.3,29.84,West,259,1.0,4.0,83,0.00,,,0.00,183,WeatherCatV1.13B119,2013-02-06 14:29:00,
2013-02-06 09:34:00,33.2,28.0,29.84,West,279,6.0,7.0,81,0.00,,,0.00,77,WeatherCatV1.13B119,2013-02-06 14:34:00,
2013-02-06 09:39:00,33.3,28.1,29.84,WSW,250,1.0,6.0,81,0.00,,,0.00,91,WeatherCatV1.13B119,2013-02-06 14:39:00,
2013-02-06 09:44:00,33.4,27.6,29.85,SSW,213,2.0,5.0,79,0.00,,,0.00,135,WeatherCatV1.13B119,2013-02-06 14:44:00,
2013-02-06 09:49:00,33.6,27.5,29.85,WSW,251,3.0,7.0,78,0.00,,,0.00,132,WeatherCatV1.13B119,2013-02-06 14:49:00,
2013-02-06 09:54:00,33.7,27.6,29.85,WNW,290,3.0,9.0,78,0.00,,,0.00,120,WeatherCatV1.13B119,2013-02-06 14:54:00,
2013-02-06 09:59:00,33.8,27.7,29.85,SW,225,3.0,5.0,78,0.00,,,0.00,134,WeatherCatV1.13B119,2013-02-06 14:59:00,
2013-02-06 10:04:00,33.9,27.5,29.85,WSW,239,1.0,4.0,77,0.00,,,0.00,142,WeatherCatV1.13B119,2013-02-06 15:04:00,
2013-02-06 10:09:00,34.1,27.3,29.85,WSW,257,4.0,4.0,76,0.00,,,0.00,176,WeatherCatV1.13B119,2013-02-06 15:09:00,
2013-02-06 10:14:00,34.5,27.4,29.85,NW,315,5.0,7.0,75,0.00,,,0.00,272,WeatherCatV1.13B119,2013-02-06 15:14:00,
2013-02-06 10:19:00,34.6,26.9,29.85,WNW,302,3.0,6.0,73,0.00,,,0.00,246,WeatherCatV1.13B119,2013-02-06 15:19:00,
2013-02-06 10:24:00,34.8,27.7,29.86,WNW,294,2.0,4.0,75,0.00,,,0.00,258,WeatherCatV1.13B119,2013-02-06 15:24:00,
2013-02-06 10:29:00,35.0,27.2,29.86,West,265,0.0,4.0,73,0.00,,,0.00,264,WeatherCatV1.13B119,2013-02-06 15:29:00,
2013-02-06 10:34:00,35.6,28.1,29.86,NW,310,5.0,7.0,74,0.00,,,0.00,255,WeatherCatV1.13B119,2013-02-06 15:34:00,
2013-02-06 10:39:00,35.9,28.1,29.85,WSW,241,3.0,4.0,73,0.00,,,0.00,308,WeatherCatV1.13B119,2013-02-06 15:39:00,
2013-02-06 10:44:00,36.1,27.3,29.86,WSW,240,5.0,7.0,70,0.00,,,0.00,374,WeatherCatV1.13B119,2013-02-06 15:44:00,
2013-02-06 10:49:00,35.7,26.5,29.86,WSW,257,3.0,7.0,69,0.00,,,0.00,459,WeatherCatV1.13B119,2013-02-06 15:49:00,
2013-02-06 10:54:00,36.1,28.0,29.86,West,268,0.0,3.0,72,0.00,,,0.00,432,WeatherCatV1.13B119,2013-02-06 15:54:00,
2013-02-06 10:59:00,36.4,27.2,29.86,West,265,5.0,6.0,69,0.00,,,0.00,552,WeatherCatV1.13B119,2013-02-06 15:59:00,
2013-02-06 11:04:00,35.8,26.3,29.86,West,275,4.0,8.0,68,0.00,,,0.00,554,WeatherCatV1.13B119,2013-02-06 16:04:00,
2013-02-06 11:09:00,35.9,26.4,29.85,NW,321,2.0,11.0,68,0.00,,,0.00,559,WeatherCatV1.13B119,2013-02-06 16:09:00,
2013-02-06 11:14:00,36.3,26.8,29.85,West,268,4.0,6.0,68,0.00,,,0.00,568,WeatherCatV1.13B119,2013-02-06 16:14:00,
2013-02-06 11:19:00,36.2,26.3,29.85,West,273,9.0,9.0,67,0.00,,,0.00,432,WeatherCatV1.13B119,2013-02-06 16:19:00,
2013-02-06 11:24:00,36.2,26.3,29.85,SW,226,4.0,7.0,67,0.00,,,0.00,596,WeatherCatV1.13B119,2013-02-06 16:24:00,
2013-02-06 11:29:00,36.8,26.9,29.85,North,350,5.0,7.0,67,0.00,,,0.01,561,WeatherCatV1.13B119,2013-02-06 16:29:00,
2013-02-06 11:34:00,37.3,27.0,29.85,WSW,250,8.0,9.0,66,0.00,,,0.01,141,WeatherCatV1.13B119,2013-02-06 16:34:00,
2013-02-06 11:39:00,37.1,26.4,29.85,North,355,3.0,5.0,65,0.00,,,0.01,183,WeatherCatV1.13B119,2013-02-06 16:39:00,
2013-02-06 11:44:00,37.1,26.4,29.85,WSW,237,5.0,7.0,65,0.00,,,0.01,97,WeatherCatV1.13B119,2013-02-06 16:44:00,
2013-02-06 11:49:00,37.0,25.6,29.85,North,5,3.0,7.0,63,0.00,,,0.01,79,WeatherCatV1.13B119,2013-02-06 16:49:00,
2013-02-06 11:54:00,36.8,25.0,29.86,WNW,284,2.0,7.0,62,0.00,,,0.01,84,WeatherCatV1.13B119,2013-02-06 16:54:00,
2013-02-06 11:59:00,36.7,25.3,29.86,SW,234,2.0,2.0,63,0.00,,,0.01,63,WeatherCatV1.13B119,2013-02-06 16:59:00,
2013-02-06 12:04:00,36.6,24.8,29.86,West,277,4.0,10.0,62,0.00,,,0.01,105,WeatherCatV1.13B119,2013-02-06 17:04:00,
2013-02-06 12:09:00,36.4,25.0,29.86,West,261,6.0,6.0,63,0.00,,,0.01,104,WeatherCatV1.13B119,2013-02-06 17:09:00,
2013-02-06 12:14:00,36.3,24.9,29.86,WSW,252,4.0,6.0,63,0.00,,,0.01,86,WeatherCatV1.13B119,2013-02-06 17:14:00,
2013-02-06 12:19:00,36.3,24.9,29.86,West,273,2.0,6.0,63,0.00,,,0.01,81,WeatherCatV1.13B119,2013-02-06 17:19:00,
2013-02-06 12:24:00,36.2,25.2,29.86,WNW,293,6.0,6.0,64,0.00,,,0.01,160,WeatherCatV1.13B119,2013-02-06 17:24:00,
2013-02-06 12:29:00,36.4,25.4,29.86,WSW,254,3.0,8.0,64,0.00,,,0.01,218,WeatherCatV1.13B119,2013-02-06 17:29:00,
2013-02-06 12:34:00,36.8,25.8,29.85,NNW,340,4.0,7.0,64,0.00,,,0.01,211,WeatherCatV1.13B119,2013-02-06 17:34:00,
2013-02-06 12:39:00,37.0,25.2,29.85,NW,311,4.0,4.0,62,0.00,,,0.01,134,WeatherCatV1.13B119,2013-02-06 17:39:00,
2013-02-06 12:44:00,37.0,24.8,29.85,WSW,239,2.0,5.0,61,0.00,,,0.01,121,WeatherCatV1.13B119,2013-02-06 17:44:00,
2013-02-06 12:49:00,37.1,24.9,29.85,WSW,256,1.0,8.0,61,0.00,,,0.01,120,WeatherCatV1.13B119,2013-02-06 17:49:00,
2013-02-06 12:54:00,37.1,24.9,29.85,SW,216,3.0,10.0,61,0.00,,,0.01,120,WeatherCatV1.13B119,2013-02-06 17:54:00,
2013-02-06 12:59:00,37.3,25.1,29.85,West,273,3.0,6.0,61,0.00,,,0.01,162,WeatherCatV1.13B119,2013-02-06 17:59:00,
2013-02-06 13:04:00,37.4,24.8,29.84,NW,325,7.0,8.0,60,0.00,,,0.01,223,WeatherCatV1.13B119,2013-02-06 18:04:00,
2013-02-06 13:09:00,37.5,24.5,29.85,West,274,3.0,8.0,59,0.00,,,0.01,179,WeatherCatV1.13B119,2013-02-06 18:09:00,
2013-02-06 13:14:00,37.7,24.3,29.85,SSW,200,4.0,10.0,58,0.00,,,0.01,185,WeatherCatV1.13B119,2013-02-06 18:14:00,
2013-02-06 13:19:00,37.7,24.3,29.85,SW,229,4.0,15.0,58,0.00,,,0.01,188,WeatherCatV1.13B119,2013-02-06 18:19:00,
2013-02-06 13:24:00,37.7,24.3,29.85,West,263,4.0,10.0,58,0.00,,,0.01,128,WeatherCatV1.13B119,2013-02-06 18:24:00,
2013-02-06 13:29:00,37.7,23.9,29.86,WSW,255,2.0,9.0,57,0.00,,,0.01,128,WeatherCatV1.13B119,2013-02-06 18:29:00,
2013-02-06 13:34:00,37.6,23.8,29.86,WNW,298,0.0,5.0,57,0.00,,,0.01,163,WeatherCatV1.13B119,2013-02-06 18:34:00,
2013-02-06 13:39:00,37.8,24.0,29.86,NW,320,2.0,7.0,57,0.00,,,0.01,148,WeatherCatV1.13B119,2013-02-06 18:39:00,
2013-02-06 13:44:00,38.2,24.3,29.86,WNW,296,11.0,13.0,57,0.00,,,0.01,185,WeatherCatV1.13B119,2013-02-06 18:44:00,
2013-02-06 13:49:00,39.1,24.7,29.86,WNW,297,4.0,4.0,56,0.00,,,0.01,659,WeatherCatV1.13B119,2013-02-06 18:49:00,
2013-02-06 13:54:00,39.8,23.6,29.86,West,264,8.0,12.0,52,0.00,,,0.01,638,WeatherCatV1.13B119,2013-02-06 18:54:00,
2013-02-06 13:59:00,39.6,23.0,29.86,West,266,7.0,7.0,51,0.00,,,0.01,158,WeatherCatV1.13B119,2013-02-06 18:59:00,
2013-02-06 14:04:00,39.3,22.7,29.86,West,279,3.0,9.0,51,0.00,,,0.01,155,WeatherCatV1.13B119,2013-02-06 19:04:00,
2013-02-06 14:09:00,39.0,22.4,29.87,NNW,347,5.0,9.0,51,0.00,,,0.01,185,WeatherCatV1.13B119,2013-02-06 19:09:00,
2013-02-06 14:14:00,39.0,22.9,29.87,WNW,292,3.0,5.0,52,0.00,,,0.01,250,WeatherCatV1.13B119,2013-02-06 19:14:00,
2013-02-06 14:19:00,39.1,23.0,29.87,NNW,348,4.0,8.0,52,0.00,,,0.01,214,WeatherCatV1.13B119,2013-02-06 19:19:00,
2013-02-06 14:24:00,39.2,22.6,29.87,WNW,302,0.0,5.0,51,0.00,,,0.01,190,WeatherCatV1.13B119,2013-02-06 19:24:00,
2013-02-06 14:29:00,39.2,22.1,29.88,West,277,2.0,5.0,50,0.00,,,0.01,148,WeatherCatV1.13B119,2013-02-06 19:29:00,
2013-02-06 14:34:00,38.9,21.9,29.88,WSW,242,5.0,7.0,50,0.00,,,0.01,125,WeatherCatV1.13B119,2013-02-06 19:34:00,
2013-02-06 14:39:00,38.8,21.8,29.88,NW,321,3.0,9.0,50,0.00,,,0.01,116,WeatherCatV1.13B119,2013-02-06 19:39:00,
2013-02-06 14:44:00,38.7,22.1,29.87,NNW,327,3.0,6.0,51,0.00,,,0.01,113,WeatherCatV1.13B119,2013-02-06 19:44:00,
2013-02-06 14:49:00,38.7,22.1,29.87,NW,326,1.0,3.0,51,0.00,,,0.01,109,WeatherCatV1.13B119,2013-02-06 19:49:00,
2013-02-06 14:54:00,38.8,22.7,29.88,West,263,1.0,7.0,52,0.00,,,0.01,111,WeatherCatV1.13B119,2013-02-06 19:54:00,
2013-02-06 14:59:00,38.7,22.6,29.88,West,271,4.0,6.0,52,0.00,,,0.01,272,WeatherCatV1.13B119,2013-02-06 19:59:00,
2013-02-06 15:04:00,39.0,22.9,29.88,WNW,284,9.0,11.0,52,0.00,,,0.01,230,WeatherCatV1.13B119,2013-02-06 20:04:00,
2013-02-06 15:09:00,39.2,22.6,29.88,WNW,284,4.0,8.0,51,0.00,,,0.01,255,WeatherCatV1.13B119,2013-02-06 20:09:00,
2013-02-06 15:14:00,39.3,22.7,29.88,West,261,4.0,10.0,51,0.00,,,0.01,60,WeatherCatV1.13B119,2013-02-06 20:14:00,
2013-02-06 15:19:00,39.3,21.8,29.88,SSW,213,4.0,9.0,49,0.00,,,0.01,316,WeatherCatV1.13B119,2013-02-06 20:19:00,
2013-02-06 15:24:00,39.3,21.8,29.89,NNW,331,5.0,10.0,49,0.00,,,0.01,285,WeatherCatV1.13B119,2013-02-06 20:24:00,
2013-02-06 15:29:00,39.4,22.3,29.89,NW,317,5.0,7.0,50,0.00,,,0.01,279,WeatherCatV1.13B119,2013-02-06 20:29:00,
2013-02-06 15:34:00,39.7,22.6,29.90,NW,322,2.0,5.0,50,0.00,,,0.01,186,WeatherCatV1.13B119,2013-02-06 20:34:00,
2013-02-06 15:39:00,39.8,22.2,29.89,NNW,342,4.0,7.0,49,0.00,,,0.01,257,WeatherCatV1.13B119,2013-02-06 20:39:00,
2013-02-06 15:44:00,40.1,23.0,29.90,SW,221,1.0,7.0,50,0.00,,,0.01,239,WeatherCatV1.13B119,2013-02-06 20:44:00,
2013-02-06 15:49:00,40.1,23.0,29.90,WNW,297,4.0,5.0,50,0.00,,,0.01,239,WeatherCatV1.13B119,2013-02-06 20:49:00,
2013-02-06 15:54:00,40.2,23.1,29.90,West,271,3.0,9.0,50,0.00,,,0.01,193,WeatherCatV1.13B119,2013-02-06 20:54:00,
2013-02-06 15:59:00,40.2,23.5,29.90,North,355,4.0,4.0,51,0.00,,,0.01,160,WeatherCatV1.13B119,2013-02-06 20:59:00,
2013-02-06 16:04:00,39.9,23.3,29.90,North,9,3.0,5.0,51,0.00,,,0.01,149,WeatherCatV1.13B119,2013-02-06 21:04:00,
2013-02-06 16:09:00,39.5,22.9,29.91,WNW,292,2.0,3.0,51,0.00,,,0.01,114,WeatherCatV1.13B119,2013-02-06 21:09:00,
2013-02-06 16:14:00,39.2,22.6,29.91,WNW,294,3.0,7.0,51,0.00,,,0.01,104,WeatherCatV1.13B119,2013-02-06 21:14:00,
2013-02-06 16:19:00,38.8,22.7,29.92,NW,305,3.0,5.0,52,0.00,,,0.01,81,WeatherCatV1.13B119,2013-02-06 21:19:00,
2013-02-06 16:24:00,38.5,22.9,29.92,NW,308,1.0,4.0,53,0.00,,,0.01,74,WeatherCatV1.13B119,2013-02-06 21:24:00,
2013-02-06 16:29:00,38.3,22.7,29.92,West,277,8.0,8.0,53,0.00,,,0.01,47,WeatherCatV1.13B119,2013-02-06 21:29:00,
2013-02-06 16:34:00,38.1,22.5,29.92,North,0,5.0,10.0,53,0.00,,,0.01,21,WeatherCatV1.13B119,2013-02-06 21:34:00,
2013-02-06 16:39:00,37.8,22.7,29.92,NW,305,1.0,4.0,54,0.00,,,0.01,21,WeatherCatV1.13B119,2013-02-06 21:39:00,
2013-02-06 16:44:00,37.7,22.6,29.92,NW,315,5.0,7.0,54,0.00,,,0.01,16,WeatherCatV1.13B119,2013-02-06 21:44:00,
2013-02-06 16:49:00,37.4,21.9,29.92,West,274,0.0,3.0,53,0.00,,,0.01,16,WeatherCatV1.13B119,2013-02-06 21:49:00,
2013-02-06 16:54:00,37.3,22.2,29.92,WNW,288,2.0,3.0,54,0.00,,,0.01,18,WeatherCatV1.13B119,2013-02-06 21:54:00,
2013-02-06 16:59:00,37.1,21.6,29.92,NW,308,3.0,6.0,53,0.00,,,0.01,16,WeatherCatV1.13B119,2013-02-06 21:59:00,
2013-02-06 17:04:00,37.1,21.6,29.93,West,279,1.0,8.0,53,0.00,,,0.01,12,WeatherCatV1.13B119,2013-02-06 22:04:00,
2013-02-06 17:09:00,37.0,21.0,29.93,West,278,1.0,2.0,52,0.00,,,0.01,9,WeatherCatV1.13B119,2013-02-06 22:09:00,
2013-02-06 17:14:00,36.9,21.4,29.93,WNW,284,2.0,5.0,53,0.00,,,0.01,7,WeatherCatV1.13B119,2013-02-06 22:14:00,
2013-02-06 17:19:00,36.7,21.2,29.94,WNW,298,0.0,1.0,53,0.00,,,0.01,5,WeatherCatV1.13B119,2013-02-06 22:19:00,
2013-02-06 17:24:00,36.6,21.5,29.94,WNW,298,0.0,1.0,54,0.00,,,0.01,0,WeatherCatV1.13B119,2013-02-06 22:24:00,
2013-02-06 17:29:00,36.5,21.5,29.95,WNW,298,0.0,0.0,54,0.00,,,0.01,0,WeatherCatV1.13B119,2013-02-06 22:29:00,
2013-02-06 17:34:00,36.3,20.4,29.95,WNW,290,1.0,2.0,52,0.00,,,0.01,0,WeatherCatV1.13B119,2013-02-06 22:34:00,
2013-02-06 17:39:00,36.1,20.6,29.95,West,281,0.0,0.0,53,0.00,,,0.01,0,WeatherCatV1.13B119,2013-02-06 22:39:00,
2013-02-06 17:44:00,36.0,20.5,29.96,West,275,1.0,3.0,53,0.00,,,0.01,0,WeatherCatV1.13B119,2013-02-06 22:44:00,
2013-02-06 17:49:00,35.9,20.5,29.96,West,274,0.0,1.0,53,0.00,,,0.01,0,WeatherCatV1.13B119,2013-02-06 22:49:00,
2013-02-06 17:54:00,35.7,20.3,29.96,West,275,0.0,1.0,53,0.00,,,0.01,0,WeatherCatV1.13B119,2013-02-06 22:54:00,
2013-02-06 17:59:00,35.5,20.5,29.97,West,275,0.0,0.0,54,0.00,,,0.01,0,WeatherCatV1.13B119,2013-02-06 22:59:00,
2013-02-06 18:04:00,35.3,19.9,29.97,West,275,0.0,0.0,53,0.00,,,0.01,0,WeatherCatV1.13B119,2013-02-06 23:04:00,
2013-02-06 18:09:00,35.0,20.1,29.97,ENE,60,0.0,5.0,54,0.00,,,0.01,0,WeatherCatV1.13B119,2013-02-06 23:09:00,
2013-02-06 18:14:00,34.8,19.4,29.98,East,95,0.0,1.0,53,0.00,,,0.01,0,WeatherCatV1.13B119,2013-02-06 23:14:00,
2013-02-06 18:19:00,34.6,19.2,29.98,East,95,0.0,0.0,53,0.00,,,0.01,0,WeatherCatV1.13B119,2013-02-06 23:19:00,
2013-02-06 18:24:00,34.4,18.6,29.99,East,90,0.0,2.0,52,0.00,,,0.01,0,WeatherCatV1.13B119,2013-02-06 23:24:00,
2013-02-06 18:29:00,34.3,19.0,29.99,SE,130,0.0,0.0,53,0.00,,,0.01,0,WeatherCatV1.13B119,2013-02-06 23:29:00,
2013-02-06 18:34:00,34.3,17.6,30.00,WNW,292,3.0,3.0,50,0.00,,,0.01,0,WeatherCatV1.13B119,2013-02-06 23:34:00,
2013-02-06 18:39:00,34.2,17.1,29.99,WNW,298,1.0,4.0,49,0.00,,,0.01,0,WeatherCatV1.13B119,2013-02-06 23:39:00,
2013-02-06 18:44:00,34.2,17.1,29.99,NNW,336,0.0,2.0,49,0.00,,,0.01,0,WeatherCatV1.13B119,2013-02-06 23:44:00,
2013-02-06 18:49:00,34.2,17.1,30.00,NNW,331,1.0,1.0,49,0.00,,,0.01,0,WeatherCatV1.13B119,2013-02-06 23:49:00,
2013-02-06 18:54:00,34.1,17.0,30.00,WNW,292,0.0,0.0,49,0.00,,,0.01,0,WeatherCatV1.13B119,2013-02-06 23:54:00,
2013-02-06 18:59:00,34.1,16.5,30.00,NW,317,2.0,2.0,48,0.00,,,0.01,0,WeatherCatV1.13B119,2013-02-06 23:59:00,
2013-02-06 19:04:00,34.1,16.5,30.00,WNW,292,1.0,3.0,48,0.00,,,0.01,0,WeatherCatV1.13B119,2013-02-07 00:04:00,
2013-02-06 19:09:00,34.1,17.0,30.01,WNW,301,0.0,1.0,49,0.00,,,0.01,0,WeatherCatV1.13B119,2013-02-07 00:09:00,
2013-02-06 19:14:00,34.1,17.0,30.01,WNW,301,0.0,1.0,49,0.00,,,0.01,0,WeatherCatV1.13B119,2013-02-07 00:14:00,
2013-02-06 19:19:00,34.1,17.0,30.01,WNW,301,0.0,0.0,49,0.00,,,0.01,0,WeatherCatV1.13B119,2013-02-07 00:19:00,
2013-02-06 19:24:00,33.9,17.2,30.02,WNW,301,0.0,0.0,50,0.00,,,0.01,0,WeatherCatV1.13B119,2013-02-07 00:24:00,
2013-02-06 19:29:00,33.8,16.7,30.02,WNW,300,1.0,4.0,49,0.00,,,0.01,0,WeatherCatV1.13B119,2013-02-07 00:29:00,
2013-02-06 19:34:00,33.6,17.4,30.01,NW,307,0.0,1.0,51,0.00,,,0.01,0,WeatherCatV1.13B119,2013-02-07 00:34:00,
2013-02-06 19:39:00,33.4,17.7,30.02,NW,326,1.0,1.0,52,0.00,,,0.01,0,WeatherCatV1.13B119,2013-02-07 00:39:00,
2013-02-06 19:44:00,33.1,17.4,30.02,NW,326,0.0,1.0,52,0.00,,,0.01,0,WeatherCatV1.13B119,2013-02-07 00:44:00,
2013-02-06 19:49:00,32.9,17.2,30.02,NNW,328,4.0,4.0,52,0.00,,,0.01,0,WeatherCatV1.13B119,2013-02-07 00:49:00,
2013-02-06 19:54:00,32.8,17.6,30.02,NW,315,2.0,3.0,53,0.00,,,0.01,0,WeatherCatV1.13B119,2013-02-07 00:54:00,
2013-02-06 19:59:00,32.6,17.4,30.02,North,5,1.0,4.0,53,0.00,,,0.01,0,WeatherCatV1.13B119,2013-02-07 00:59:00,
2013-02-06 20:04:00,32.5,17.3,30.02,NNW,347,1.0,2.0,53,0.00,,,0.01,0,WeatherCatV1.13B119,2013-02-07 01:04:00,
2013-02-06 20:09:00,32.5,17.3,30.03,NW,315,0.0,3.0,53,0.00,,,0.01,0,WeatherCatV1.13B119,2013-02-07 01:09:00,
2013-02-06 20:14:00,32.4,17.2,30.03,NW,315,1.0,1.0,53,0.00,,,0.01,0,WeatherCatV1.13B119,2013-02-07 01:14:00,
2013-02-06 20:19:00,32.4,17.2,30.03,NNE,15,1.0,2.0,53,0.00,,,0.01,0,WeatherCatV1.13B119,2013-02-07 01:19:00,
2013-02-06 20:24:00,32.4,17.2,30.03,NNW,328,0.0,3.0,53,0.00,,,0.01,0,WeatherCatV1.13B119,2013-02-07 01:24:00,
2013-02-06 20:29:00,32.3,17.1,30.04,ENE,60,0.0,2.0,53,0.00,,,0.01,0,WeatherCatV1.13B119,2013-02-07 01:29:00,
2013-02-06 20:34:00,32.3,17.1,30.04,NNW,347,2.0,3.0,53,0.00,,,0.01,0,WeatherCatV1.13B119,2013-02-07 01:34:00,
2013-02-06 20:39:00,32.3,16.7,30.04,ENE,67,0.0,4.0,52,0.00,,,0.01,0,WeatherCatV1.13B119,2013-02-07 01:39:00,
2013-02-06 20:44:00,32.2,17.0,30.05,East,80,0.0,1.0,53,0.00,,,0.01,0,WeatherCatV1.13B119,2013-02-07 01:44:00,
2013-02-06 20:49:00,32.1,16.9,30.05,NNE,22,3.0,4.0,53,0.00,,,0.01,0,WeatherCatV1.13B119,2013-02-07 01:49:00,
2013-02-06 20:54:00,32.0,16.4,30.04,NNW,348,1.0,3.0,52,0.00,,,0.01,0,WeatherCatV1.13B119,2013-02-07 01:54:00,
2013-02-06 20:59:00,32.0,16.4,30.04,NNW,348,2.0,5.0,52,0.00,,,0.01,0,WeatherCatV1.13B119,2013-02-07 01:59:00,
2013-02-06 21:04:00,31.9,16.3,30.05,NNW,329,2.0,3.0,52,0.00,,,0.01,0,WeatherCatV1.13B119,2013-02-07 02:04:00,
2013-02-06 21:09:00,31.8,16.2,30.05,North,0,0.0,3.0,52,0.00,,,0.01,0,WeatherCatV1.13B119,2013-02-07 02:09:00,
2013-02-06 21:14:00,31.7,15.7,30.06,NNE,17,2.0,4.0,51,0.00,,,0.01,0,WeatherCatV1.13B119,2013-02-07 02:14:00,
2013-02-06 21:19:00,31.6,15.1,30.05,NE,54,3.0,4.0,50,0.00,,,0.01,0,WeatherCatV1.13B119,2013-02-07 02:19:00,
2013-02-06 21:24:00,31.6,15.1,30.05,North,351,0.0,3.0,50,0.00,,,0.01,0,WeatherCatV1.13B119,2013-02-07 02:24:00,
2013-02-06 21:29:00,31.5,15.0,30.05,NE,56,2.0,3.0,50,0.00,,,0.01,0,WeatherCatV1.13B119,2013-02-07 02:29:00,
2013-02-06 21:34:00,31.3,14.8,30.06,WNW,300,2.0,4.0,50,0.00,,,0.01,0,WeatherCatV1.13B119,2013-02-07 02:34:00,
2013-02-06 21:39:00,31.2,14.8,30.06,North,0,1.0,4.0,50,0.00,,,0.01,0,WeatherCatV1.13B119,2013-02-07 02:39:00,
2013-02-06 21:44:00,31.1,14.7,30.06,NE,40,0.0,1.0,50,0.00,,,0.01,0,WeatherCatV1.13B119,2013-02-07 02:44:00,
2013-02-06 21:49:00,31.0,14.1,30.06,North,0,2.0,4.0,49,0.00,,,0.01,0,WeatherCatV1.13B119,2013-02-07 02:49:00,
2013-02-06 21:54:00,30.9,14.0,30.07,North,0,1.0,4.0,49,0.00,,,0.01,0,WeatherCatV1.13B119,2013-02-07 02:54:00,
2013-02-06 21:59:00,30.7,13.8,30.07,North,0,1.0,3.0,49,0.00,,,0.01,0,WeatherCatV1.13B119,2013-02-07 02:59:00,
2013-02-06 22:04:00,30.6,13.7,30.07,NNW,348,1.0,2.0,49,0.00,,,0.01,0,WeatherCatV1.13B119,2013-02-07 03:04:00,
2013-02-06 22:09:00,30.5,13.6,30.07,NNW,348,1.0,2.0,49,0.00,,,0.01,0,WeatherCatV1.13B119,2013-02-07 03:09:00,
2013-02-06 22:14:00,30.5,13.2,30.07,North,9,0.0,2.0,48,0.00,,,0.01,0,WeatherCatV1.13B119,2013-02-07 03:14:00,
2013-02-06 22:19:00,30.4,13.6,30.08,North,9,0.0,1.0,49,0.00,,,0.01,0,WeatherCatV1.13B119,2013-02-07 03:19:00,
2013-02-06 22:24:00,30.3,13.5,30.08,North,9,0.0,0.0,49,0.00,,,0.01,0,WeatherCatV1.13B119,2013-02-07 03:24:00,
2013-02-06 22:29:00,30.2,13.8,30.08,North,9,0.0,0.0,50,0.00,,,0.01,0,WeatherCatV1.13B119,2013-02-07 03:29:00,
2013-02-06 22:34:00,30.1,13.7,30.08,North,9,0.0,0.0,50,0.00,,,0.01,0,WeatherCatV1.13B119,2013-02-07 03:34:00,
2013-02-06 22:39:00,30.0,14.1,30.08,North,9,0.0,0.0,51,0.00,,,0.01,0,WeatherCatV1.13B119,2013-02-07 03:39:00,
2013-02-06 22:44:00,29.8,14.8,30.09,North,9,0.0,0.0,53,0.00,,,0.01,0,WeatherCatV1.13B119,2013-02-07 03:44:00,
2013-02-06 22:49:00,29.6,15.0,30.09,North,9,0.0,0.0,54,0.00,,,0.01,0,WeatherCatV1.13B119,2013-02-07 03:49:00,
2013-02-06 22:54:00,29.2,14.2,30.09,North,9,0.0,1.0,53,0.00,,,0.01,0,WeatherCatV1.13B119,2013-02-07 03:54:00,
2013-02-06 22:59:00,28.9,14.8,30.09,North,9,0.0,0.0,55,0.00,,,0.01,0,WeatherCatV1.13B119,2013-02-07 03:59:00,
2013-02-06 23:04:00,28.6,14.5,30.09,North,11,0.0,1.0,55,0.00,,,0.01,0,WeatherCatV1.13B119,2013-02-07 04:04:00,
2013-02-06 23:09:00,28.4,13.9,30.09,NNW,346,2.0,5.0,54,0.00,,,0.01,0,WeatherCatV1.13B119,2013-02-07 04:09:00,
2013-02-06 23:14:00,28.3,13.8,30.09,NNW,332,0.0,2.0,54,0.00,,,0.01,0,WeatherCatV1.13B119,2013-02-07 04:14:00,
2013-02-06 23:19:00,28.3,13.8,30.09,NNW,332,0.0,2.0,54,0.00,,,0.01,0,WeatherCatV1.13B119,2013-02-07 04:19:00,
2013-02-06 23:24:00,28.3,13.0,30.09,North,11,0.0,0.0,52,0.00,,,0.01,0,WeatherCatV1.13B119,2013-02-07 04:24:00,
2013-02-06 23:29:00,28.3,13.0,30.09,North,11,0.0,0.0,52,0.00,,,0.01,0,WeatherCatV1.13B119,2013-02-07 04:29:00,
2013-02-06 23:34:00,28.3,13.0,30.09,NNE,14,0.0,2.0,52,0.00,,,0.01,0,WeatherCatV1.13B119,2013-02-07 04:34:00,
2013-02-06 23:39:00,28.3,13.8,30.09,NNE,14,0.0,0.0,54,0.00,,,0.01,0,WeatherCatV1.13B119,2013-02-07 04:39:00,
2013-02-06 23:44:00,28.1,14.4,30.09,NNE,14,0.0,0.0,56,0.00,,,0.01,0,WeatherCatV1.13B119,2013-02-07 04:44:00,
2013-02-06 23:49:00,27.9,13.9,30.09,NNE,14,0.0,0.0,55,0.00,,,0.01,0,WeatherCatV1.13B119,2013-02-07 04:49:00,
2013-02-06 23:54:00,27.8,13.3,30.09,NNE,14,0.0,0.0,54,0.00,,,0.01,0,WeatherCatV1.13B119,2013-02-07 04:54:00,
2013-02-06 23:59:00,27.6,13.2,30.10,NNE,14,0.0,0.0,54,0.00,,,0.01,0,WeatherCatV1.13B119,2013-02-07 04:59:00,